sensor_id;sensor_type;location;lat;lon;timestamp;P1;durP1;ratioP1;P2;durP2;ratioP2
75837;SDS011;64480;52.040;113.502;2022-11-28T00:02:37;20.27;;;8.23;;
75837;SDS011;64480;52.040;113.502;2022-11-28T00:05:41;13.27;;;5.13;;
75837;SDS011;64480;52.040;113.502;2022-11-28T00:08:48;14.85;;;6.25;;
75837;SDS011;64480;52.040;113.502;2022-11-28T00:11:51;8.25;;;4.97;;
75837;SDS011;64480;52.040;113.502;2022-11-28T00:14:54;12.32;;;5.53;;
75837;SDS011;64480;52.040;113.502;2022-11-28T00:17:57;19.65;;;9.02;;
75837;SDS011;64480;52.040;113.502;2022-11-28T00:21:01;13.20;;;5.75;;
75837;SDS011;64480;52.040;113.502;2022-11-28T00:24:07;13.50;;;7.95;;
75837;SDS011;64480;52.040;113.502;2022-11-28T00:27:11;30.98;;;13.77;;
75837;SDS011;64480;52.040;113.502;2022-11-28T00:30:14;46.40;;;17.30;;
75837;SDS011;64480;52.040;113.502;2022-11-28T00:33:17;16.63;;;6.57;;
75837;SDS011;64480;52.040;113.502;2022-11-28T00:36:21;43.50;;;14.20;;
75837;SDS011;64480;52.040;113.502;2022-11-28T00:39:25;24.98;;;10.55;;
75837;SDS011;64480;52.040;113.502;2022-11-28T00:42:28;18.88;;;9.30;;
75837;SDS011;64480;52.040;113.502;2022-11-28T00:45:31;18.92;;;10.23;;
75837;SDS011;64480;52.040;113.502;2022-11-28T00:48:35;20.20;;;8.27;;
75837;SDS011;64480;52.040;113.502;2022-11-28T00:51:38;54.90;;;21.48;;
75837;SDS011;64480;52.040;113.502;2022-11-28T00:54:42;50.67;;;17.77;;
75837;SDS011;64480;52.040;113.502;2022-11-28T00:57:45;21.98;;;6.78;;
75837;SDS011;64480;52.040;113.502;2022-11-28T01:00:48;7.45;;;3.83;;
75837;SDS011;64480;52.040;113.502;2022-11-28T01:03:52;41.03;;;10.55;;
75837;SDS011;64480;52.040;113.502;2022-11-28T01:06:57;21.92;;;7.03;;
75837;SDS011;64480;52.040;113.502;2022-11-28T01:10:00;2.60;;;1.80;;
75837;SDS011;64480;52.040;113.502;2022-11-28T01:13:03;3.10;;;2.55;;
75837;SDS011;64480;52.040;113.502;2022-11-28T01:16:07;9.07;;;3.53;;
75837;SDS011;64480;52.040;113.502;2022-11-28T01:19:11;6.25;;;3.35;;
75837;SDS011;64480;52.040;113.502;2022-11-28T01:22:15;12.00;;;4.70;;
75837;SDS011;64480;52.040;113.502;2022-11-28T01:25:18;13.32;;;4.68;;
75837;SDS011;64480;52.040;113.502;2022-11-28T01:28:21;3.92;;;1.92;;
75837;SDS011;64480;52.040;113.502;2022-11-28T01:31:25;19.15;;;6.57;;
75837;SDS011;64480;52.040;113.502;2022-11-28T01:34:29;2.42;;;1.75;;
75837;SDS011;64480;52.040;113.502;2022-11-28T01:37:33;10.90;;;5.00;;
75837;SDS011;64480;52.040;113.502;2022-11-28T01:40:42;12.55;;;3.65;;
75837;SDS011;64480;52.040;113.502;2022-11-28T01:43:56;15.50;;;5.22;;
75837;SDS011;64480;52.040;113.502;2022-11-28T01:47:28;8.02;;;2.47;;
75837;SDS011;64480;52.040;113.502;2022-11-28T01:50:32;10.88;;;4.10;;
75837;SDS011;64480;52.040;113.502;2022-11-28T01:53:38;15.43;;;5.03;;
75837;SDS011;64480;52.040;113.502;2022-11-28T01:56:46;27.40;;;7.22;;
75837;SDS011;64480;52.040;113.502;2022-11-28T02:00:20;4.97;;;3.08;;
75837;SDS011;64480;52.040;113.502;2022-11-28T02:03:28;11.95;;;4.68;;
75837;SDS011;64480;52.040;113.502;2022-11-28T02:06:35;6.43;;;3.25;;
75837;SDS011;64480;52.040;113.502;2022-11-28T02:09:39;20.40;;;7.05;;
75837;SDS011;64480;52.040;113.502;2022-11-28T02:23:27;8.23;;;4.05;;
75837;SDS011;64480;52.040;113.502;2022-11-28T02:30:08;3.05;;;1.95;;
75837;SDS011;64480;52.040;113.502;2022-11-28T02:33:35;9.50;;;3.08;;
75837;SDS011;64480;52.040;113.502;2022-11-28T02:36:46;9.48;;;3.33;;
75837;SDS011;64480;52.040;113.502;2022-11-28T02:43:22;14.38;;;4.72;;
75837;SDS011;64480;52.040;113.502;2022-11-28T02:46:46;11.35;;;5.70;;
75837;SDS011;64480;52.040;113.502;2022-11-28T02:53:12;8.77;;;4.28;;
75837;SDS011;64480;52.040;113.502;2022-11-28T02:56:21;11.65;;;3.25;;
75837;SDS011;64480;52.040;113.502;2022-11-28T03:02:44;9.75;;;3.95;;
75837;SDS011;64480;52.040;113.502;2022-11-28T03:05:52;24.48;;;6.13;;
75837;SDS011;64480;52.040;113.502;2022-11-28T03:15:58;7.30;;;2.85;;
75837;SDS011;64480;52.040;113.502;2022-11-28T03:19:15;10.75;;;1.95;;
75837;SDS011;64480;52.040;113.502;2022-11-28T03:22:29;6.15;;;2.25;;
75837;SDS011;64480;52.040;113.502;2022-11-28T03:29:11;10.20;;;4.60;;
75837;SDS011;64480;52.040;113.502;2022-11-28T03:32:35;7.95;;;3.25;;
75837;SDS011;64480;52.040;113.502;2022-11-28T03:35:42;1.85;;;1.00;;
75837;SDS011;64480;52.040;113.502;2022-11-28T03:38:51;1.45;;;1.02;;
75837;SDS011;64480;52.040;113.502;2022-11-28T03:42:23;2.97;;;1.40;;
75837;SDS011;64480;52.040;113.502;2022-11-28T03:45:46;21.58;;;3.28;;
75837;SDS011;64480;52.040;113.502;2022-11-28T03:48:53;18.50;;;4.43;;
75837;SDS011;64480;52.040;113.502;2022-11-28T03:52:05;6.88;;;1.80;;
75837;SDS011;64480;52.040;113.502;2022-11-28T03:55:15;9.48;;;3.38;;
75837;SDS011;64480;52.040;113.502;2022-11-28T04:01:59;16.02;;;3.53;;
75837;SDS011;64480;52.040;113.502;2022-11-28T04:05:33;13.10;;;4.47;;
75837;SDS011;64480;52.040;113.502;2022-11-28T04:15:55;1.23;;;0.80;;
75837;SDS011;64480;52.040;113.502;2022-11-28T04:19:01;2.50;;;1.40;;
75837;SDS011;64480;52.040;113.502;2022-11-28T04:25:26;1.88;;;1.23;;
75837;SDS011;64480;52.040;113.502;2022-11-28T04:28:32;2.17;;;1.23;;
75837;SDS011;64480;52.040;113.502;2022-11-28T04:31:38;16.98;;;3.33;;
75837;SDS011;64480;52.040;113.502;2022-11-28T04:34:46;7.03;;;2.10;;
75837;SDS011;64480;52.040;113.502;2022-11-28T04:37:52;4.78;;;1.95;;
75837;SDS011;64480;52.040;113.502;2022-11-28T04:44:15;6.93;;;2.15;;
75837;SDS011;64480;52.040;113.502;2022-11-28T04:47:32;7.93;;;2.40;;
75837;SDS011;64480;52.040;113.502;2022-11-28T04:50:49;2.97;;;1.40;;
75837;SDS011;64480;52.040;113.502;2022-11-28T04:57:23;2.63;;;1.25;;
75837;SDS011;64480;52.040;113.502;2022-11-28T05:00:32;9.07;;;2.17;;
75837;SDS011;64480;52.040;113.502;2022-11-28T05:03:37;0.60;;;0.60;;
75837;SDS011;64480;52.040;113.502;2022-11-28T05:06:43;5.43;;;1.52;;
75837;SDS011;64480;52.040;113.502;2022-11-28T05:09:47;5.20;;;2.25;;
75837;SDS011;64480;52.040;113.502;2022-11-28T05:12:50;1.83;;;1.65;;
75837;SDS011;64480;52.040;113.502;2022-11-28T05:15:53;2.72;;;1.20;;
75837;SDS011;64480;52.040;113.502;2022-11-28T05:18:56;1.92;;;0.50;;
75837;SDS011;64480;52.040;113.502;2022-11-28T05:21:59;2.80;;;1.40;;
75837;SDS011;64480;52.040;113.502;2022-11-28T05:25:03;10.40;;;3.75;;
75837;SDS011;64480;52.040;113.502;2022-11-28T05:28:06;12.70;;;4.88;;
75837;SDS011;64480;52.040;113.502;2022-11-28T05:31:10;4.43;;;2.22;;
75837;SDS011;64480;52.040;113.502;2022-11-28T05:34:14;3.40;;;1.33;;
75837;SDS011;64480;52.040;113.502;2022-11-28T05:37:17;17.95;;;3.80;;
75837;SDS011;64480;52.040;113.502;2022-11-28T05:40:20;6.70;;;1.80;;
75837;SDS011;64480;52.040;113.502;2022-11-28T05:43:24;8.70;;;3.03;;
75837;SDS011;64480;52.040;113.502;2022-11-28T05:46:27;17.92;;;4.47;;
75837;SDS011;64480;52.040;113.502;2022-11-28T05:49:31;6.25;;;2.58;;
75837;SDS011;64480;52.040;113.502;2022-11-28T05:52:34;10.20;;;3.05;;
75837;SDS011;64480;52.040;113.502;2022-11-28T05:55:38;12.85;;;3.85;;
75837;SDS011;64480;52.040;113.502;2022-11-28T05:58:42;1.90;;;1.25;;
75837;SDS011;64480;52.040;113.502;2022-11-28T06:01:45;5.03;;;1.08;;
75837;SDS011;64480;52.040;113.502;2022-11-28T06:04:50;4.40;;;3.70;;
75837;SDS011;64480;52.040;113.502;2022-11-28T06:07:53;14.23;;;3.88;;
75837;SDS011;64480;52.040;113.502;2022-11-28T06:10:56;7.10;;;2.28;;
75837;SDS011;64480;52.040;113.502;2022-11-28T06:14:00;16.17;;;1.58;;
75837;SDS011;64480;52.040;113.502;2022-11-28T06:17:04;6.88;;;2.35;;
75837;SDS011;64480;52.040;113.502;2022-11-28T06:20:07;13.15;;;2.00;;
75837;SDS011;64480;52.040;113.502;2022-11-28T06:23:10;12.57;;;3.35;;
75837;SDS011;64480;52.040;113.502;2022-11-28T06:26:15;6.80;;;2.63;;
75837;SDS011;64480;52.040;113.502;2022-11-28T06:29:19;5.10;;;2.30;;
75837;SDS011;64480;52.040;113.502;2022-11-28T06:32:23;9.82;;;3.92;;
75837;SDS011;64480;52.040;113.502;2022-11-28T06:35:26;9.82;;;4.40;;
75837;SDS011;64480;52.040;113.502;2022-11-28T06:38:29;2.83;;;0.80;;
75837;SDS011;64480;52.040;113.502;2022-11-28T06:41:32;7.93;;;3.70;;
75837;SDS011;64480;52.040;113.502;2022-11-28T06:44:35;6.90;;;3.40;;
75837;SDS011;64480;52.040;113.502;2022-11-28T06:47:39;9.02;;;3.22;;
75837;SDS011;64480;52.040;113.502;2022-11-28T06:50:42;10.65;;;6.63;;
75837;SDS011;64480;52.040;113.502;2022-11-28T06:53:45;10.18;;;3.80;;
75837;SDS011;64480;52.040;113.502;2022-11-28T06:56:49;9.93;;;4.70;;
75837;SDS011;64480;52.040;113.502;2022-11-28T06:59:52;7.25;;;3.03;;
75837;SDS011;64480;52.040;113.502;2022-11-28T07:02:55;6.88;;;2.28;;
75837;SDS011;64480;52.040;113.502;2022-11-28T07:06:00;6.45;;;2.85;;
75837;SDS011;64480;52.040;113.502;2022-11-28T07:09:04;2.45;;;1.17;;
75837;SDS011;64480;52.040;113.502;2022-11-28T07:12:07;2.65;;;1.17;;
75837;SDS011;64480;52.040;113.502;2022-11-28T07:15:11;3.40;;;1.55;;
75837;SDS011;64480;52.040;113.502;2022-11-28T07:18:14;6.32;;;2.03;;
75837;SDS011;64480;52.040;113.502;2022-11-28T07:21:18;6.40;;;3.22;;
75837;SDS011;64480;52.040;113.502;2022-11-28T07:24:22;5.82;;;1.45;;
75837;SDS011;64480;52.040;113.502;2022-11-28T07:27:25;7.82;;;1.67;;
75837;SDS011;64480;52.040;113.502;2022-11-28T07:30:28;6.40;;;3.17;;
75837;SDS011;64480;52.040;113.502;2022-11-28T07:33:32;5.60;;;2.75;;
75837;SDS011;64480;52.040;113.502;2022-11-28T07:36:36;13.88;;;5.93;;
75837;SDS011;64480;52.040;113.502;2022-11-28T07:39:40;6.38;;;2.63;;
75837;SDS011;64480;52.040;113.502;2022-11-28T07:42:45;9.77;;;4.00;;
75837;SDS011;64480;52.040;113.502;2022-11-28T07:45:50;5.80;;;2.97;;
75837;SDS011;64480;52.040;113.502;2022-11-28T07:49:02;14.10;;;5.68;;
75837;SDS011;64480;52.040;113.502;2022-11-28T07:52:05;9.43;;;3.67;;
75837;SDS011;64480;52.040;113.502;2022-11-28T07:55:08;4.13;;;3.03;;
75837;SDS011;64480;52.040;113.502;2022-11-28T07:58:12;8.13;;;2.42;;
75837;SDS011;64480;52.040;113.502;2022-11-28T08:01:22;0.38;;;0.20;;
75837;SDS011;64480;52.040;113.502;2022-11-28T08:04:26;8.43;;;4.05;;
75837;SDS011;64480;52.040;113.502;2022-11-28T08:07:30;6.75;;;3.45;;
75837;SDS011;64480;52.040;113.502;2022-11-28T08:10:33;1.50;;;1.02;;
75837;SDS011;64480;52.040;113.502;2022-11-28T08:13:36;2.03;;;1.60;;
75837;SDS011;64480;52.040;113.502;2022-11-28T08:16:40;2.22;;;1.05;;
75837;SDS011;64480;52.040;113.502;2022-11-28T08:19:46;5.93;;;2.58;;
75837;SDS011;64480;52.040;113.502;2022-11-28T08:22:49;4.40;;;1.85;;
75837;SDS011;64480;52.040;113.502;2022-11-28T08:25:52;5.47;;;1.73;;
75837;SDS011;64480;52.040;113.502;2022-11-28T08:28:56;4.35;;;2.70;;
75837;SDS011;64480;52.040;113.502;2022-11-28T08:31:59;6.13;;;3.40;;
75837;SDS011;64480;52.040;113.502;2022-11-28T08:35:07;11.18;;;4.75;;
75837;SDS011;64480;52.040;113.502;2022-11-28T08:38:10;11.77;;;5.15;;
75837;SDS011;64480;52.040;113.502;2022-11-28T08:41:14;15.60;;;8.05;;
75837;SDS011;64480;52.040;113.502;2022-11-28T08:44:20;4.78;;;2.20;;
75837;SDS011;64480;52.040;113.502;2022-11-28T08:47:24;8.30;;;4.25;;
75837;SDS011;64480;52.040;113.502;2022-11-28T08:50:27;12.23;;;5.63;;
75837;SDS011;64480;52.040;113.502;2022-11-28T08:53:30;13.65;;;6.70;;
75837;SDS011;64480;52.040;113.502;2022-11-28T08:56:34;29.05;;;9.10;;
75837;SDS011;64480;52.040;113.502;2022-11-28T08:59:37;14.15;;;8.00;;
75837;SDS011;64480;52.040;113.502;2022-11-28T09:02:40;12.10;;;5.28;;
75837;SDS011;64480;52.040;113.502;2022-11-28T09:05:44;17.92;;;7.70;;
75837;SDS011;64480;52.040;113.502;2022-11-28T09:08:48;13.20;;;2.60;;
75837;SDS011;64480;52.040;113.502;2022-11-28T09:11:52;6.57;;;3.63;;
75837;SDS011;64480;52.040;113.502;2022-11-28T09:14:55;7.07;;;4.10;;
75837;SDS011;64480;52.040;113.502;2022-11-28T09:17:58;17.73;;;7.03;;
75837;SDS011;64480;52.040;113.502;2022-11-28T09:21:06;3.03;;;2.65;;
75837;SDS011;64480;52.040;113.502;2022-11-28T09:24:11;16.55;;;6.55;;
75837;SDS011;64480;52.040;113.502;2022-11-28T09:27:15;17.25;;;5.38;;
75837;SDS011;64480;52.040;113.502;2022-11-28T09:30:18;4.78;;;2.55;;
75837;SDS011;64480;52.040;113.502;2022-11-28T09:33:24;6.68;;;3.67;;
75837;SDS011;64480;52.040;113.502;2022-11-28T09:36:28;21.25;;;7.22;;
75837;SDS011;64480;52.040;113.502;2022-11-28T09:39:31;15.82;;;5.20;;
75837;SDS011;64480;52.040;113.502;2022-11-28T09:42:55;7.63;;;4.43;;
75837;SDS011;64480;52.040;113.502;2022-11-28T09:46:03;16.85;;;4.97;;
75837;SDS011;64480;52.040;113.502;2022-11-28T09:49:52;3.88;;;2.08;;
75837;SDS011;64480;52.040;113.502;2022-11-28T09:55:51;15.48;;;4.68;;
75837;SDS011;64480;52.040;113.502;2022-11-28T10:05:28;6.65;;;3.20;;
75837;SDS011;64480;52.040;113.502;2022-11-28T10:09:12;22.50;;;7.00;;
75837;SDS011;64480;52.040;113.502;2022-11-28T10:12:38;18.33;;;5.75;;
75837;SDS011;64480;52.040;113.502;2022-11-28T10:19:36;5.78;;;3.63;;
75837;SDS011;64480;52.040;113.502;2022-11-28T10:23:03;17.02;;;4.97;;
75837;SDS011;64480;52.040;113.502;2022-11-28T10:29:48;5.10;;;3.00;;
75837;SDS011;64480;52.040;113.502;2022-11-28T10:33:03;19.73;;;5.60;;
75837;SDS011;64480;52.040;113.502;2022-11-28T10:36:23;11.35;;;3.97;;
75837;SDS011;64480;52.040;113.502;2022-11-28T10:39:48;12.32;;;6.55;;
75837;SDS011;64480;52.040;113.502;2022-11-28T10:46:23;11.63;;;3.85;;
75837;SDS011;64480;52.040;113.502;2022-11-28T10:53:06;1.17;;;1.08;;
75837;SDS011;64480;52.040;113.502;2022-11-28T10:56:19;19.55;;;2.10;;
75837;SDS011;64480;52.040;113.502;2022-11-28T11:02:55;17.50;;;4.07;;
75837;SDS011;64480;52.040;113.502;2022-11-28T11:06:02;9.40;;;4.38;;
75837;SDS011;64480;52.040;113.502;2022-11-28T11:09:08;12.15;;;4.07;;
75837;SDS011;64480;52.040;113.502;2022-11-28T11:12:17;7.28;;;3.53;;
75837;SDS011;64480;52.040;113.502;2022-11-28T11:15:33;9.52;;;2.90;;
75837;SDS011;64480;52.040;113.502;2022-11-28T11:22:33;9.85;;;3.60;;
75837;SDS011;64480;52.040;113.502;2022-11-28T11:25:22;9.43;;;3.28;;
75837;SDS011;64480;52.040;113.502;2022-11-28T11:31:41;11.15;;;1.50;;
75837;SDS011;64480;52.040;113.502;2022-11-28T11:34:45;4.15;;;1.80;;
75837;SDS011;64480;52.040;113.502;2022-11-28T11:37:48;2.42;;;1.15;;
75837;SDS011;64480;52.040;113.502;2022-11-28T11:40:52;2.55;;;1.55;;
75837;SDS011;64480;52.040;113.502;2022-11-28T11:43:55;3.92;;;1.15;;
75837;SDS011;64480;52.040;113.502;2022-11-28T11:47:19;7.88;;;2.15;;
75837;SDS011;64480;52.040;113.502;2022-11-28T11:50:42;6.32;;;2.17;;
75837;SDS011;64480;52.040;113.502;2022-11-28T11:57:20;0.13;;;0.13;;
75837;SDS011;64480;52.040;113.502;2022-11-28T12:00:37;5.05;;;2.05;;
75837;SDS011;64480;52.040;113.502;2022-11-28T12:03:51;6.30;;;3.35;;
75837;SDS011;64480;52.040;113.502;2022-11-28T12:10:52;23.60;;;7.30;;
75837;SDS011;64480;52.040;113.502;2022-11-28T12:21:12;13.02;;;4.85;;
75837;SDS011;64480;52.040;113.502;2022-11-28T12:31:54;2.42;;;0.80;;
75837;SDS011;64480;52.040;113.502;2022-11-28T12:35:30;2.13;;;1.35;;
75837;SDS011;64480;52.040;113.502;2022-11-28T12:38:58;2.10;;;0.98;;
75837;SDS011;64480;52.040;113.502;2022-11-28T12:42:20;6.93;;;1.83;;
75837;SDS011;64480;52.040;113.502;2022-11-28T12:45:29;15.15;;;3.17;;
75837;SDS011;64480;52.040;113.502;2022-11-28T13:03:23;9.23;;;2.13;;
75837;SDS011;64480;52.040;113.502;2022-11-28T13:06:49;4.65;;;2.00;;
75837;SDS011;64480;52.040;113.502;2022-11-28T13:10:18;7.38;;;3.05;;
75837;SDS011;64480;52.040;113.502;2022-11-28T13:13:38;11.18;;;3.50;;
75837;SDS011;64480;52.040;113.502;2022-11-28T13:16:53;9.40;;;3.47;;
75837;SDS011;64480;52.040;113.502;2022-11-28T13:23:18;2.92;;;1.20;;
75837;SDS011;64480;52.040;113.502;2022-11-28T13:37:19;7.82;;;1.48;;
75837;SDS011;64480;52.040;113.502;2022-11-28T13:40:56;4.13;;;1.65;;
75837;SDS011;64480;52.040;113.502;2022-11-28T13:47:56;5.60;;;2.65;;
75837;SDS011;64480;52.040;113.502;2022-11-28T13:51:13;5.95;;;2.63;;
75837;SDS011;64480;52.040;113.502;2022-11-28T13:57:36;0.90;;;0.88;;
75837;SDS011;64480;52.040;113.502;2022-11-28T14:00:42;3.05;;;2.78;;
75837;SDS011;64480;52.040;113.502;2022-11-28T14:04:10;6.32;;;2.42;;
75837;SDS011;64480;52.040;113.502;2022-11-28T14:07:26;26.15;;;3.22;;
75837;SDS011;64480;52.040;113.502;2022-11-28T14:27:11;6.55;;;2.20;;
75837;SDS011;64480;52.040;113.502;2022-11-28T14:30:37;13.60;;;4.30;;
75837;SDS011;64480;52.040;113.502;2022-11-28T14:33:43;1.42;;;0.93;;
75837;SDS011;64480;52.040;113.502;2022-11-28T14:36:47;4.07;;;2.10;;
75837;SDS011;64480;52.040;113.502;2022-11-28T14:39:54;6.75;;;2.38;;
75837;SDS011;64480;52.040;113.502;2022-11-28T14:46:34;5.35;;;0.77;;
75837;SDS011;64480;52.040;113.502;2022-11-28T14:49:37;11.27;;;3.45;;
75837;SDS011;64480;52.040;113.502;2022-11-28T14:52:41;11.15;;;3.85;;
75837;SDS011;64480;52.040;113.502;2022-11-28T14:55:46;8.50;;;3.63;;
75837;SDS011;64480;52.040;113.502;2022-11-28T14:58:51;7.20;;;3.45;;
75837;SDS011;64480;52.040;113.502;2022-11-28T15:02:07;0.52;;;0.52;;
75837;SDS011;64480;52.040;113.502;2022-11-28T15:15:27;2.40;;;1.42;;
75837;SDS011;64480;52.040;113.502;2022-11-28T15:18:31;16.33;;;7.32;;
75837;SDS011;64480;52.040;113.502;2022-11-28T15:21:44;9.18;;;2.60;;
75837;SDS011;64480;52.040;113.502;2022-11-28T15:24:50;7.82;;;2.88;;
75837;SDS011;64480;52.040;113.502;2022-11-28T15:27:54;8.60;;;2.80;;
75837;SDS011;64480;52.040;113.502;2022-11-28T15:30:59;4.20;;;1.90;;
75837;SDS011;64480;52.040;113.502;2022-11-28T15:34:09;2.38;;;0.95;;
75837;SDS011;64480;52.040;113.502;2022-11-28T15:37:16;2.00;;;1.48;;
75837;SDS011;64480;52.040;113.502;2022-11-28T15:40:26;9.85;;;3.75;;
75837;SDS011;64480;52.040;113.502;2022-11-28T15:43:37;2.47;;;1.60;;
75837;SDS011;64480;52.040;113.502;2022-11-28T15:46:45;4.55;;;1.08;;
75837;SDS011;64480;52.040;113.502;2022-11-28T15:50:13;7.82;;;3.40;;
75837;SDS011;64480;52.040;113.502;2022-11-28T15:53:19;1.65;;;1.13;;
75837;SDS011;64480;52.040;113.502;2022-11-28T15:56:22;3.60;;;2.13;;
75837;SDS011;64480;52.040;113.502;2022-11-28T15:59:26;8.82;;;2.67;;
75837;SDS011;64480;52.040;113.502;2022-11-28T16:02:33;13.48;;;4.53;;
75837;SDS011;64480;52.040;113.502;2022-11-28T16:05:38;3.05;;;1.50;;
75837;SDS011;64480;52.040;113.502;2022-11-28T16:08:46;1.95;;;1.55;;
75837;SDS011;64480;52.040;113.502;2022-11-28T16:11:53;12.02;;;3.13;;
75837;SDS011;64480;52.040;113.502;2022-11-28T16:14:57;3.67;;;2.60;;
75837;SDS011;64480;52.040;113.502;2022-11-28T16:18:04;7.90;;;2.80;;
75837;SDS011;64480;52.040;113.502;2022-11-28T16:21:10;1.67;;;1.58;;
75837;SDS011;64480;52.040;113.502;2022-11-28T16:24:15;2.45;;;1.75;;
75837;SDS011;64480;52.040;113.502;2022-11-28T16:27:33;4.50;;;3.03;;
75837;SDS011;64480;52.040;113.502;2022-11-28T16:30:41;0.50;;;0.50;;
75837;SDS011;64480;52.040;113.502;2022-11-28T16:33:45;2.95;;;0.88;;
75837;SDS011;64480;52.040;113.502;2022-11-28T16:36:49;4.60;;;1.13;;
75837;SDS011;64480;52.040;113.502;2022-11-28T16:39:59;4.05;;;2.83;;
75837;SDS011;64480;52.040;113.502;2022-11-28T16:46:39;8.90;;;2.60;;
75837;SDS011;64480;52.040;113.502;2022-11-28T16:50:24;10.32;;;4.40;;
75837;SDS011;64480;52.040;113.502;2022-11-28T16:56:45;5.13;;;2.25;;
75837;SDS011;64480;52.040;113.502;2022-11-28T16:59:49;11.20;;;3.50;;
75837;SDS011;64480;52.040;113.502;2022-11-28T17:02:56;5.90;;;0.90;;
75837;SDS011;64480;52.040;113.502;2022-11-28T17:05:59;7.70;;;2.38;;
75837;SDS011;64480;52.040;113.502;2022-11-28T17:09:03;0.93;;;0.93;;
75837;SDS011;64480;52.040;113.502;2022-11-28T17:12:22;2.17;;;1.45;;
75837;SDS011;64480;52.040;113.502;2022-11-28T17:15:44;5.82;;;2.67;;
75837;SDS011;64480;52.040;113.502;2022-11-28T17:18:47;8.95;;;0.93;;
75837;SDS011;64480;52.040;113.502;2022-11-28T17:21:55;4.55;;;1.65;;
75837;SDS011;64480;52.040;113.502;2022-11-28T17:25:00;3.97;;;2.05;;
75837;SDS011;64480;52.040;113.502;2022-11-28T17:28:07;1.67;;;1.23;;
75837;SDS011;64480;52.040;113.502;2022-11-28T17:31:11;2.15;;;1.33;;
75837;SDS011;64480;52.040;113.502;2022-11-28T17:34:20;2.58;;;0.93;;
75837;SDS011;64480;52.040;113.502;2022-11-28T17:37:25;2.85;;;1.77;;
75837;SDS011;64480;52.040;113.502;2022-11-28T17:40:28;0.40;;;0.40;;
75837;SDS011;64480;52.040;113.502;2022-11-28T17:43:34;8.00;;;1.80;;
75837;SDS011;64480;52.040;113.502;2022-11-28T17:46:40;1.65;;;0.85;;
75837;SDS011;64480;52.040;113.502;2022-11-28T17:49:43;6.03;;;1.67;;
75837;SDS011;64480;52.040;113.502;2022-11-28T17:52:47;1.60;;;1.05;;
75837;SDS011;64480;52.040;113.502;2022-11-28T17:55:51;3.60;;;2.30;;
75837;SDS011;64480;52.040;113.502;2022-11-28T17:59:00;3.00;;;1.40;;
75837;SDS011;64480;52.040;113.502;2022-11-28T18:02:03;2.17;;;0.85;;
75837;SDS011;64480;52.040;113.502;2022-11-28T18:05:06;1.65;;;0.93;;
75837;SDS011;64480;52.040;113.502;2022-11-28T18:08:12;1.88;;;0.80;;
75837;SDS011;64480;52.040;113.502;2022-11-28T18:11:22;5.28;;;2.13;;
75837;SDS011;64480;52.040;113.502;2022-11-28T18:14:26;1.55;;;1.10;;
75837;SDS011;64480;52.040;113.502;2022-11-28T18:17:30;0.80;;;0.80;;
75837;SDS011;64480;52.040;113.502;2022-11-28T18:20:34;3.03;;;2.03;;
75837;SDS011;64480;52.040;113.502;2022-11-28T18:23:47;5.97;;;1.48;;
75837;SDS011;64480;52.040;113.502;2022-11-28T18:26:51;3.70;;;1.08;;
75837;SDS011;64480;52.040;113.502;2022-11-28T18:32:59;0.77;;;0.77;;
75837;SDS011;64480;52.040;113.502;2022-11-28T18:36:12;2.53;;;0.90;;
75837;SDS011;64480;52.040;113.502;2022-11-28T18:39:26;0.40;;;0.32;;
75837;SDS011;64480;52.040;113.502;2022-11-28T18:42:29;1.48;;;0.57;;
75837;SDS011;64480;52.040;113.502;2022-11-28T18:48:37;1.55;;;1.02;;
75837;SDS011;64480;52.040;113.502;2022-11-28T18:51:41;3.42;;;1.33;;
75837;SDS011;64480;52.040;113.502;2022-11-28T18:54:46;4.07;;;2.10;;
75837;SDS011;64480;52.040;113.502;2022-11-28T18:57:51;5.25;;;2.28;;
75837;SDS011;64480;52.040;113.502;2022-11-28T19:00:54;3.35;;;2.65;;
75837;SDS011;64480;52.040;113.502;2022-11-28T19:03:59;4.00;;;2.20;;
75837;SDS011;64480;52.040;113.502;2022-11-28T19:07:07;4.22;;;1.10;;
75837;SDS011;64480;52.040;113.502;2022-11-28T19:10:11;2.90;;;1.55;;
75837;SDS011;64480;52.040;113.502;2022-11-28T19:13:15;2.63;;;2.38;;
75837;SDS011;64480;52.040;113.502;2022-11-28T19:16:36;1.95;;;1.50;;
75837;SDS011;64480;52.040;113.502;2022-11-28T19:19:39;9.63;;;3.53;;
75837;SDS011;64480;52.040;113.502;2022-11-28T19:22:45;0.82;;;0.77;;
75837;SDS011;64480;52.040;113.502;2022-11-28T19:28:51;1.90;;;1.20;;
75837;SDS011;64480;52.040;113.502;2022-11-28T19:31:55;2.00;;;1.63;;
75837;SDS011;64480;52.040;113.502;2022-11-28T19:35:00;2.50;;;1.40;;
75837;SDS011;64480;52.040;113.502;2022-11-28T19:38:03;0.82;;;0.80;;
75837;SDS011;64480;52.040;113.502;2022-11-28T19:41:09;1.88;;;1.27;;
75837;SDS011;64480;52.040;113.502;2022-11-28T19:44:15;1.10;;;1.00;;
75837;SDS011;64480;52.040;113.502;2022-11-28T19:50:21;1.48;;;0.98;;
75837;SDS011;64480;52.040;113.502;2022-11-28T19:53:25;3.45;;;0.88;;
75837;SDS011;64480;52.040;113.502;2022-11-28T19:56:30;6.38;;;2.20;;
75837;SDS011;64480;52.040;113.502;2022-11-28T20:02:36;0.38;;;0.35;;
75837;SDS011;64480;52.040;113.502;2022-11-28T20:05:40;6.28;;;1.73;;
75837;SDS011;64480;52.040;113.502;2022-11-28T20:08:43;5.47;;;2.45;;
75837;SDS011;64480;52.040;113.502;2022-11-28T20:11:49;3.05;;;1.33;;
75837;SDS011;64480;52.040;113.502;2022-11-28T20:14:52;8.02;;;3.72;;
75837;SDS011;64480;52.040;113.502;2022-11-28T20:17:55;1.25;;;1.00;;
75837;SDS011;64480;52.040;113.502;2022-11-28T20:21:03;1.40;;;1.30;;
75837;SDS011;64480;52.040;113.502;2022-11-28T20:24:13;12.88;;;2.17;;
75837;SDS011;64480;52.040;113.502;2022-11-28T20:27:18;5.40;;;2.17;;
75837;SDS011;64480;52.040;113.502;2022-11-28T20:30:22;10.57;;;3.58;;
75837;SDS011;64480;52.040;113.502;2022-11-28T20:33:25;8.93;;;1.70;;
75837;SDS011;64480;52.040;113.502;2022-11-28T20:36:29;5.25;;;1.88;;
75837;SDS011;64480;52.040;113.502;2022-11-28T20:39:34;1.25;;;0.98;;
75837;SDS011;64480;52.040;113.502;2022-11-28T20:42:38;2.92;;;1.23;;
75837;SDS011;64480;52.040;113.502;2022-11-28T20:48:44;0.85;;;0.85;;
75837;SDS011;64480;52.040;113.502;2022-11-28T20:51:47;4.20;;;1.13;;
75837;SDS011;64480;52.040;113.502;2022-11-28T20:54:51;0.43;;;0.43;;
75837;SDS011;64480;52.040;113.502;2022-11-28T20:57:54;3.35;;;1.40;;
75837;SDS011;64480;52.040;113.502;2022-11-28T21:04:01;0.30;;;0.30;;
75837;SDS011;64480;52.040;113.502;2022-11-28T21:07:05;1.30;;;0.70;;
75837;SDS011;64480;52.040;113.502;2022-11-28T21:10:09;15.50;;;2.95;;
75837;SDS011;64480;52.040;113.502;2022-11-28T21:13:12;2.38;;;1.15;;
75837;SDS011;64480;52.040;113.502;2022-11-28T21:19:20;6.40;;;2.10;;
75837;SDS011;64480;52.040;113.502;2022-11-28T21:22:23;4.60;;;2.10;;
75837;SDS011;64480;52.040;113.502;2022-11-28T21:28:29;4.22;;;1.50;;
75837;SDS011;64480;52.040;113.502;2022-11-28T21:31:34;1.77;;;1.63;;
75837;SDS011;64480;52.040;113.502;2022-11-28T21:34:39;0.82;;;0.82;;
75837;SDS011;64480;52.040;113.502;2022-11-28T21:40:50;4.10;;;2.50;;
75837;SDS011;64480;52.040;113.502;2022-11-28T21:43:54;3.67;;;1.85;;
75837;SDS011;64480;52.040;113.502;2022-11-28T21:46:58;1.27;;;0.73;;
75837;SDS011;64480;52.040;113.502;2022-11-28T21:50:01;0.40;;;0.40;;